LJPZ/POW METAR and TAF weather

Enter ICAO airport designator
Station Type Date Time Source
LJPZ METAR 2018/12/12 08:00 UTC NOAA

LJPZ 120800Z 12008KT CAVOK 00/M05 Q1020


Station Type Date Time Source
LJPZ Decoded METAR 2018/12/12 08:00 UTC NOAA

Portoroz, Slovenia (LJPZ) 45-31N 013-34E
Dec 12, 2018 - 03:00 AM EST / 2018.12.12 0800 UTC
Wind: from the ESE (120 degrees) at 9 MPH (8 KT):0
Visibility: greater than 7 mile(s):0
Temperature: 32 F (0 C)
Windchill: 24 F (-4 C):1
Dew Point: 23 F (-5 C)
Relative Humidity: 69%
Pressure (altimeter): 30.12 in. Hg (1020 hPa)
ob: LJPZ 120800Z 12008KT CAVOK 00/M05 Q1020
cycle: 8

Station Type Date Time Source
LJPZ TAF 2008/06/02 05:30 UTC NOAA

TAF TAF LJPZ 020530Z 021615 VRB02KT 6000 NSC
BECMG 0911 30005KT 9999 FEW040


Example: see airport list